Time;durP1;ratioP1;P1;durP2;ratioP2;P2;SDS_P1;SDS_P2;PMS_P1;PMS_P2;Temp;Humidity;BMP_temperature;BMP_pressure;BME280_temperature;BME280_humidity;BME280_pressure;Samples;Min_cycle;Max_cycle;Signal;HPM_P1;HPM_P2
2021/05/13 00:02:14;;;;;;;9.52;5.25;;;12.20;99.90;;;;;;5067034;28;20165;-69
2021/05/13 00:04:40;;;;;;;7.68;4.72;;;12.20;99.90;;;;;;5067273;28;20181;-69
2021/05/13 00:07:06;;;;;;;6.00;4.63;;;12.20;99.90;;;;;;5064724;28;20228;-69
2021/05/13 00:09:32;;;;;;;6.20;4.63;;;12.20;99.90;;;;;;5067343;28;20220;-69
2021/05/13 00:12:01;;;;;;;6.68;4.40;;;12.10;99.90;;;;;;5049240;28;20161;-69
2021/05/13 00:14:27;;;;;;;8.63;4.40;;;12.10;99.90;;;;;;5048759;28;20169;-69
2021/05/13 00:16:53;;;;;;;4.90;4.07;;;12.00;99.90;;;;;;5064533;28;20195;-69
2021/05/13 00:19:19;;;;;;;6.28;4.30;;;12.10;99.90;;;;;;5066724;28;20183;-69
2021/05/13 00:21:45;;;;;;;8.98;4.57;;;12.10;99.90;;;;;;5066951;28;20165;-69
2021/05/13 00:24:13;;;;;;;8.57;4.05;;;12.10;99.90;;;;;;5066710;28;20208;-69
2021/05/13 00:26:41;;;;;;;3.80;3.47;;;12.10;99.90;;;;;;5064220;28;20269;-69
2021/05/13 00:29:12;;;;;;;15.45;4.10;;;12.20;99.90;;;;;;5048660;28;20230;-69
2021/05/13 00:31:40;;;;;;;9.77;4.35;;;12.40;99.90;;;;;;5066670;28;20165;-70
2021/05/13 00:34:06;;;;;;;7.10;3.80;;;12.50;99.90;;;;;;5066279;28;20212;-69
2021/05/13 00:36:34;;;;;;;6.50;4.05;;;12.60;99.90;;;;;;5064345;28;20156;-69
2021/05/13 00:39:00;;;;;;;5.63;4.18;;;12.60;99.90;;;;;;5066634;28;20164;-69
2021/05/13 00:41:26;;;;;;;7.70;4.50;;;12.70;99.90;;;;;;5066843;28;20161;-69
2021/05/13 00:43:52;;;;;;;8.82;4.15;;;12.70;99.90;;;;;;5066557;28;20168;-69
2021/05/13 00:46:18;;;;;;;8.05;4.05;;;12.60;99.90;;;;;;5063730;28;20681;-69
2021/05/13 00:48:46;;;;;;;4.70;3.50;;;12.60;99.90;;;;;;5066440;28;20160;-69
2021/05/13 00:51:13;;;;;;;6.97;4.07;;;12.60;99.90;;;;;;5066259;28;20156;-69
2021/05/13 00:53:43;;;;;;;3.60;3.28;;;12.70;99.90;;;;;;5065945;28;20168;-69
2021/05/13 00:56:09;;;;;;;8.23;4.10;;;12.80;99.90;;;;;;5063760;28;20191;-69
2021/05/13 00:58:37;;;;;;;4.78;4.07;;;12.80;99.90;;;;;;5066454;28;20164;-69
2021/05/13 01:01:07;;;;;;;7.57;4.28;;;12.90;99.90;;;;;;5047809;28;20161;-69
2021/05/13 01:03:34;;;;;;;5.22;4.38;;;12.80;99.90;;;;;;5065889;28;20175;-69
2021/05/13 01:06:04;;;;;;;7.72;4.20;;;12.90;99.90;;;;;;5063919;28;20202;-69
2021/05/13 01:08:30;;;;;;;9.02;4.15;;;12.90;99.90;;;;;;5066465;28;20168;-69
2021/05/13 01:10:56;;;;;;;6.15;4.32;;;12.90;99.90;;;;;;5066357;28;20161;-69
2021/05/13 01:13:24;;;;;;;4.35;3.95;;;12.90;99.90;;;;;;5065867;28;20201;-69
2021/05/13 01:16:11;;;;;;;5.20;4.38;;;12.90;99.90;;;;;;5063514;28;20195;-69
2021/05/13 01:18:36;;;;;;;6.10;4.25;;;13.00;99.90;;;;;;5065547;28;20267;-69
2021/05/13 01:21:02;;;;;;;9.90;4.88;;;13.00;99.90;;;;;;5065908;28;20224;-69
2021/05/13 01:23:28;;;;;;;9.23;4.85;;;13.00;99.90;;;;;;5066134;28;20560;-69
2021/05/13 01:25:55;;;;;;;5.85;4.93;;;13.00;99.90;;;;;;5062661;28;20181;-69
2021/05/13 01:28:23;;;;;;;7.82;5.63;;;13.00;99.90;;;;;;5065769;28;20185;-69
2021/05/13 01:30:51;;;;;;;5.68;4.75;;;12.90;99.90;;;;;;5066044;28;20157;-69
2021/05/13 01:33:19;;;;;;;8.27;5.40;;;13.00;99.90;;;;;;5065045;28;20208;-69
2021/05/13 01:35:45;;;;;;;10.18;5.50;;;13.00;99.90;;;;;;5063318;28;20153;-69
2021/05/13 01:38:16;;;;;;;5.75;5.00;;;13.00;99.90;;;;;;5065569;28;20276;-69
2021/05/13 01:40:50;;;;;;;7.32;5.88;;;12.90;99.90;;;;;;5065834;28;20638;-69
2021/05/13 01:43:15;;;;;;;10.55;5.82;;;12.90;99.90;;;;;;5065405;28;20179;-68
2021/05/13 01:45:44;;;;;;;10.32;5.82;;;12.90;99.90;;;;;;5045402;28;20505;-69
2021/05/13 01:48:10;;;;;;;8.55;6.10;;;12.80;99.90;;;;;;5065137;28;20157;-69
2021/05/13 01:50:36;;;;;;;8.52;6.30;;;12.90;99.90;;;;;;5065702;28;20156;-69
2021/05/13 01:53:06;;;;;;;9.60;6.72;;;12.90;99.90;;;;;;5047628;28;20173;-69
2021/05/13 01:55:35;;;;;;;9.75;6.60;;;13.00;99.90;;;;;;5063041;28;20157;-69
2021/05/13 01:58:02;;;;;;;7.80;7.00;;;12.90;99.90;;;;;;5065501;28;20153;-69
2021/05/13 02:00:28;;;;;;;9.02;6.43;;;12.90;99.90;;;;;;5065565;28;20172;-69
2021/05/13 02:02:53;;;;;;;6.53;5.72;;;12.90;99.90;;;;;;5065122;28;20176;-69
2021/05/13 02:05:21;;;;;;;10.63;6.50;;;12.90;99.90;;;;;;5063533;28;20161;-69
2021/05/13 02:07:47;;;;;;;10.45;6.53;;;12.90;99.90;;;;;;5064952;28;20185;-69
2021/05/13 02:10:14;;;;;;;8.48;6.60;;;13.00;99.90;;;;;;5065518;28;20161;-69
2021/05/13 02:12:41;;;;;;;7.75;7.05;;;12.90;99.90;;;;;;5065385;28;20180;-69
2021/05/13 02:15:11;;;;;;;8.77;6.78;;;12.80;99.90;;;;;;5064832;28;20165;-69
2021/05/13 02:17:37;;;;;;;11.55;7.47;;;12.80;99.90;;;;;;5063860;28;20672;-69
2021/05/13 02:20:05;;;;;;;9.48;6.60;;;12.70;99.90;;;;;;5065133;28;20172;-69
2021/05/13 02:22:31;;;;;;;7.95;6.90;;;12.80;99.90;;;;;;5047360;28;20545;-69
2021/05/13 02:24:56;;;;;;;10.52;7.30;;;12.70;99.90;;;;;;5047570;28;20169;-69
2021/05/13 02:27:22;;;;;;;12.93;7.75;;;12.70;99.90;;;;;;5044722;28;20291;-69
2021/05/13 02:29:48;;;;;;;11.57;7.45;;;12.70;99.90;;;;;;5047380;28;20238;-69
2021/05/13 02:32:13;;;;;;;11.75;7.55;;;12.60;99.90;;;;;;5047016;28;20161;-69
2021/05/13 02:34:39;;;;;;;14.77;8.52;;;12.60;99.90;;;;;;5064751;28;20255;-69
2021/05/13 02:37:05;;;;;;;11.57;8.30;;;12.50;99.90;;;;;;5064735;28;20222;-69
2021/05/13 02:39:30;;;;;;;11.60;8.13;;;12.60;99.90;;;;;;5069271;28;20161;-69
2021/05/13 02:41:56;;;;;;;12.10;8.93;;;12.60;99.90;;;;;;5051289;28;20168;-69
2021/05/13 02:44:21;;;;;;;12.38;8.75;;;12.50;99.90;;;;;;5068798;28;20180;-69
2021/05/13 02:46:47;;;;;;;13.60;9.65;;;12.50;99.90;;;;;;5048325;28;20200;-69
2021/05/13 02:49:13;;;;;;;11.07;9.40;;;12.40;99.90;;;;;;5050535;28;20171;-69
2021/05/13 02:51:38;;;;;;;12.80;9.18;;;12.40;99.90;;;;;;5068945;28;20153;-69
2021/05/13 02:54:04;;;;;;;13.05;9.23;;;12.30;99.90;;;;;;5068617;28;20176;-69
2021/05/13 02:56:30;;;;;;;22.98;9.88;;;12.30;99.90;;;;;;5066245;28;20179;-69
2021/05/13 02:58:56;;;;;;;12.35;10.20;;;12.30;99.90;;;;;;5050604;28;20161;-69
2021/05/13 03:01:26;;;;;;;16.23;10.73;;;12.20;99.90;;;;;;5068641;28;20160;-69
2021/05/13 03:03:53;;;;;;;15.25;10.23;;;12.20;99.90;;;;;;5068170;28;20177;-69
2021/05/13 03:06:20;;;;;;;16.05;10.93;;;12.10;99.90;;;;;;5065985;28;20212;-69
2021/05/13 03:08:47;;;;;;;13.02;10.55;;;12.10;99.90;;;;;;5068394;28;20199;-69
2021/05/13 03:11:13;;;;;;;17.42;10.63;;;12.10;99.90;;;;;;5068528;28;20153;-69
2021/05/13 03:13:38;;;;;;;16.65;10.45;;;12.00;99.90;;;;;;5068436;28;20192;-69
2021/05/13 03:16:04;;;;;;;11.68;10.48;;;12.00;99.90;;;;;;5065954;28;20193;-69
2021/05/13 03:18:32;;;;;;;14.77;10.15;;;11.90;99.90;;;;;;5068241;28;20176;-69
2021/05/13 03:21:07;;;;;;;16.17;11.27;;;11.90;99.90;;;;;;5068481;28;20221;-68
2021/05/13 03:26:24;;;;;;;12.67;10.77;;;11.90;99.90;;;;;;5065712;28;20204;-69
2021/05/13 03:28:49;;;;;;;12.48;10.93;;;11.90;99.90;;;;;;5068366;28;20158;-69
2021/05/13 03:31:15;;;;;;;13.60;10.02;;;11.80;99.90;;;;;;5068148;28;20183;-69
2021/05/13 03:33:41;;;;;;;11.80;10.30;;;11.70;99.90;;;;;;5067592;28;20209;-68
2021/05/13 03:36:06;;;;;;;12.85;10.85;;;11.60;99.90;;;;;;5065348;28;20165;-69
2021/05/13 03:38:32;;;;;;;12.90;10.13;;;11.50;99.90;;;;;;5068174;28;20168;-69
2021/05/13 03:40:58;;;;;;;15.87;11.00;;;11.50;99.90;;;;;;5068198;28;20164;-69
2021/05/13 03:43:23;;;;;;;13.03;10.30;;;11.50;99.90;;;;;;5067744;28;20164;-69
2021/05/13 03:45:49;;;;;;;12.03;10.70;;;11.50;99.90;;;;;;5065265;28;20701;-69
2021/05/13 03:48:15;;;;;;;15.33;11.23;;;11.50;99.90;;;;;;5066476;28;20240;-69
2021/05/13 03:50:40;;;;;;;13.13;10.30;;;11.40;99.90;;;;;;5067907;28;20168;-69
2021/05/13 03:53:07;;;;;;;14.77;10.90;;;11.40;99.90;;;;;;5067550;28;20193;-69
2021/05/13 03:55:33;;;;;;;13.67;11.00;;;11.40;99.90;;;;;;5064959;28;20175;-69
2021/05/13 03:58:00;;;;;;;16.93;11.30;;;11.40;99.90;;;;;;5067683;28;20224;-69
2021/05/13 04:00:38;;;;;;;15.23;11.90;;;11.30;99.90;;;;;;5067825;28;20153;-69
2021/05/13 04:03:03;;;;;;;15.23;11.57;;;11.30;99.90;;;;;;5067101;28;20168;-69
2021/05/13 04:05:29;;;;;;;19.73;12.03;;;11.30;99.90;;;;;;5064764;28;20234;-68
2021/05/13 04:07:55;;;;;;;16.47;12.17;;;11.40;99.90;;;;;;5067570;28;20168;-69
2021/05/13 04:10:21;;;;;;;15.67;11.87;;;11.40;99.90;;;;;;5067346;28;20161;-69
2021/05/13 04:12:51;;;;;;;19.37;12.93;;;11.40;99.90;;;;;;5067195;28;20171;-69
2021/05/13 04:15:16;;;;;;;13.57;12.03;;;11.50;99.90;;;;;;5065683;28;20224;-69
2021/05/13 04:17:42;;;;;;;15.57;11.40;;;11.50;99.90;;;;;;5066476;28;20165;-68
2021/05/13 04:20:08;;;;;;;17.07;12.17;;;11.50;99.90;;;;;;5066864;28;20180;-69
2021/05/13 04:22:35;;;;;;;16.40;12.27;;;11.50;99.90;;;;;;5067322;28;20164;-69
2021/05/13 04:25:01;;;;;;;12.93;11.53;;;11.50;99.90;;;;;;5067212;28;20172;-68
2021/05/13 04:27:26;;;;;;;18.70;12.03;;;11.50;99.90;;;;;;5064637;28;20227;-69
2021/05/13 04:29:52;;;;;;;15.10;12.00;;;11.60;99.90;;;;;;5067003;28;20169;-69
2021/05/13 04:32:18;;;;;;;25.33;13.50;;;11.50;99.90;;;;;;5066524;28;20225;-69
2021/05/13 04:34:44;;;;;;;19.17;12.10;;;11.60;99.90;;;;;;5066389;28;20264;-69
2021/05/13 04:37:09;;;;;;;17.03;12.37;;;11.60;99.90;;;;;;5064249;28;20164;-69
2021/05/13 04:39:35;;;;;;;17.87;11.90;;;11.70;99.90;;;;;;5066809;28;20157;-69
2021/05/13 04:42:01;;;;;;;18.57;12.43;;;11.70;99.90;;;;;;5066766;28;20161;-69
2021/05/13 04:44:26;;;;;;;14.90;12.00;;;11.70;99.90;;;;;;5066606;28;20176;-69
2021/05/13 04:46:58;;;;;;;15.13;12.07;;;11.80;99.90;;;;;;5064131;28;20199;-68
2021/05/13 04:49:24;;;;;;;15.60;12.57;;;11.80;99.90;;;;;;5066238;28;20177;-68
2021/05/13 04:51:50;;;;;;;14.83;11.73;;;11.80;99.90;;;;;;5066565;28;20163;-69
2021/05/13 04:54:17;;;;;;;15.68;12.15;;;11.90;99.90;;;;;;5066253;28;20192;-68
2021/05/13 04:56:44;;;;;;;16.77;12.25;;;11.80;99.90;;;;;;5063962;28;20181;-68
2021/05/13 04:59:10;;;;;;;16.77;12.43;;;12.00;99.90;;;;;;5066241;28;20160;-71
2021/05/13 05:01:36;;;;;;;17.27;12.60;;;12.00;99.90;;;;;;5066315;28;20756;-70
2021/05/13 05:04:02;;;;;;;15.82;11.98;;;12.00;99.90;;;;;;5065919;28;20177;-71
2021/05/13 05:06:28;;;;;;;14.30;12.03;;;11.80;99.90;;;;;;5063801;28;20196;-72
2021/05/13 05:08:55;;;;;;;20.77;11.77;;;11.90;99.90;;;;;;5066083;28;20185;-70
2021/05/13 05:11:22;;;;;;;15.13;12.07;;;12.10;99.90;;;;;;5066032;28;20159;-70
2021/05/13 05:13:48;;;;;;;14.02;11.65;;;12.20;99.90;;;;;;5066043;28;20169;-71
2021/05/13 05:16:14;;;;;;;20.85;12.50;;;12.30;99.90;;;;;;5063318;28;20160;-71
2021/05/13 05:18:40;;;;;;;23.30;13.15;;;12.40;99.90;;;;;;5065625;28;20172;-71
2021/05/13 05:21:06;;;;;;;21.42;12.43;;;12.60;99.90;;;;;;5065791;28;20243;-71
2021/05/13 05:23:32;;;;;;;16.33;12.18;;;12.80;99.90;;;;;;5066089;28;20180;-71
2021/05/13 05:25:58;;;;;;;13.25;11.93;;;13.00;99.90;;;;;;5063566;28;20192;-71
2021/05/13 05:28:25;;;;;;;15.20;12.68;;;13.10;99.90;;;;;;5066143;28;20177;-71
2021/05/13 05:30:51;;;;;;;17.38;12.30;;;13.10;99.90;;;;;;5065863;28;20207;-71
2021/05/13 05:33:16;;;;;;;19.77;13.25;;;13.10;99.90;;;;;;5064796;28;20208;-71
2021/05/13 05:35:42;;;;;;;14.60;12.15;;;13.10;99.90;;;;;;5063155;28;20156;-71
2021/05/13 05:38:08;;;;;;;18.88;12.75;;;13.20;99.90;;;;;;5064891;28;20157;-71
2021/05/13 05:40:34;;;;;;;13.27;11.90;;;13.20;99.90;;;;;;5065828;28;20153;-71
2021/05/13 05:43:00;;;;;;;17.67;12.73;;;13.40;99.90;;;;;;5065117;28;20161;-71
2021/05/13 05:45:26;;;;;;;15.00;12.18;;;13.40;99.90;;;;;;5063030;28;20156;-71
2021/05/13 05:47:59;;;;;;;18.83;12.63;;;13.80;99.90;;;;;;5065563;28;20239;-72
2021/05/13 05:50:35;;;;;;;20.73;12.98;;;13.80;99.90;;;;;;5064716;28;20192;-71
2021/05/13 05:53:02;;;;;;;16.48;13.50;;;14.00;99.90;;;;;;5065292;28;20159;-71
2021/05/13 05:55:28;;;;;;;14.68;12.10;;;14.10;99.90;;;;;;5063080;28;20156;-73
2021/05/13 05:57:55;;;;;;;20.20;12.02;;;14.30;99.90;;;;;;5065716;28;20160;-72
2021/05/13 06:00:21;;;;;;;16.67;12.43;;;14.40;99.90;;;;;;5065223;28;20153;-72
2021/05/13 06:02:47;;;;;;;15.48;10.98;;;14.40;99.90;;;;;;5065289;28;20161;-72
2021/05/13 06:05:13;;;;;;;21.20;12.02;;;14.40;99.90;;;;;;5063573;28;20260;-72
2021/05/13 06:07:39;;;;;;;16.50;11.88;;;14.50;99.90;;;;;;5064278;28;20197;-72
2021/05/13 06:10:08;;;;;;;12.82;11.43;;;14.40;99.90;;;;;;5064976;28;20227;-73
2021/05/13 06:12:35;;;;;;;17.52;10.95;;;14.40;99.90;;;;;;5067808;28;20171;-71
2021/05/13 06:15:02;;;;;;;14.40;11.93;;;14.40;99.90;;;;;;5051271;28;20172;-71
2021/05/13 06:17:28;;;;;;;15.90;12.32;;;14.40;99.90;;;;;;5066131;28;20828;-71
2021/05/13 06:19:55;;;;;;;20.38;11.55;;;14.60;99.90;;;;;;5051292;28;20192;-71
2021/05/13 06:22:21;;;;;;;12.77;11.18;;;14.60;99.90;;;;;;5069207;28;20221;-71
2021/05/13 06:24:47;;;;;;;17.05;11.35;;;14.40;99.90;;;;;;5051279;28;20168;-71
2021/05/13 06:27:13;;;;;;;15.95;11.73;;;14.60;99.90;;;;;;5066274;28;20453;-71
2021/05/13 06:29:38;;;;;;;16.98;11.88;;;14.70;99.90;;;;;;5069280;28;20187;-71
2021/05/13 06:32:04;;;;;;;12.48;11.18;;;14.60;99.90;;;;;;5068993;28;20165;-71
2021/05/13 06:34:30;;;;;;;14.52;11.25;;;14.60;99.90;;;;;;5068773;28;20195;-71
2021/05/13 06:36:57;;;;;;;13.80;10.82;;;14.80;99.90;;;;;;5066501;28;20192;-72
2021/05/13 06:39:23;;;;;;;12.95;11.27;;;14.80;99.90;;;;;;5068718;28;20187;-72
2021/05/13 06:41:49;;;;;;;13.88;11.07;;;14.90;99.90;;;;;;5068919;28;20165;-72
2021/05/13 06:44:15;;;;;;;14.45;11.95;;;14.90;99.90;;;;;;5068517;28;20165;-71
2021/05/13 06:46:41;;;;;;;18.95;10.40;;;15.20;99.90;;;;;;5066215;28;20208;-72
2021/05/13 06:49:06;;;;;;;17.60;11.35;;;15.30;99.90;;;;;;5050294;28;20176;-72
2021/05/13 06:51:32;;;;;;;18.00;10.88;;;15.30;99.90;;;;;;5050699;28;20169;-72
2021/05/13 06:53:58;;;;;;;14.75;11.10;;;15.20;99.90;;;;;;5068556;28;20236;-72
2021/05/13 06:56:24;;;;;;;24.45;11.52;;;15.30;99.90;;;;;;5065896;28;20187;-72
2021/05/13 06:58:50;;;;;;;12.45;11.15;;;15.20;99.90;;;;;;5068550;28;20358;-72
2021/05/13 07:01:16;;;;;;;18.92;10.75;;;15.30;99.90;;;;;;5068611;28;20244;-72
2021/05/13 07:03:42;;;;;;;13.15;9.90;;;15.40;99.90;;;;;;5050122;28;20198;-72
2021/05/13 07:06:08;;;;;;;13.23;10.85;;;15.30;99.90;;;;;;5065596;28;20188;-72
2021/05/13 07:08:34;;;;;;;20.45;11.07;;;15.50;99.90;;;;;;5068424;28;20160;-73
2021/05/13 07:11:00;;;;;;;19.60;10.68;;;15.50;99.90;;;;;;5050250;28;20527;-72
2021/05/13 07:13:26;;;;;;;13.20;9.63;;;15.70;99.90;;;;;;5067449;28;20177;-73
2021/05/13 07:15:52;;;;;;;17.50;10.77;;;15.70;99.90;;;;;;5064796;28;20179;-73
2021/05/13 07:18:18;;;;;;;13.77;9.85;;;15.90;99.90;;;;;;5067639;28;20165;-73
2021/05/13 07:20:44;;;;;;;13.30;9.95;;;16.10;99.90;;;;;;5068185;28;20164;-72
2021/05/13 07:23:10;;;;;;;16.08;10.77;;;16.10;99.90;;;;;;5048401;28;20164;-73
2021/05/13 07:25:38;;;;;;;15.13;10.32;;;16.10;99.90;;;;;;5064736;28;20457;-72
2021/05/13 07:28:04;;;;;;;13.75;9.40;;;16.30;99.90;;;;;;5067365;28;20176;-72
2021/05/13 07:30:30;;;;;;;15.00;8.85;;;16.30;99.90;;;;;;5067486;28;20161;-72
2021/05/13 07:32:55;;;;;;;11.55;8.30;;;16.30;99.90;;;;;;5067159;28;20260;-72
2021/05/13 07:35:23;;;;;;;12.25;8.30;;;16.60;99.90;;;;;;5064245;28;20188;-71
2021/05/13 07:37:49;;;;;;;13.82;8.55;;;16.80;99.90;;;;;;5067411;28;20275;-72
2021/05/13 07:40:18;;;;;;;13.98;9.35;;;17.00;99.90;;;;;;5067566;28;20160;-72
2021/05/13 07:42:44;;;;;;;16.73;8.15;;;17.10;99.90;;;;;;5067367;28;20197;-72
2021/05/13 07:45:11;;;;;;;17.52;8.45;;;17.20;99.90;;;;;;5066077;28;20180;-72
2021/05/13 07:47:38;;;;;;;12.93;8.45;;;17.40;99.90;;;;;;5065952;28;20224;-72
2021/05/13 07:50:05;;;;;;;14.05;7.95;;;17.60;99.90;;;;;;5067131;28;20172;-71
2021/05/13 07:52:31;;;;;;;9.55;7.55;;;17.70;99.90;;;;;;5066855;28;20167;-72
2021/05/13 07:54:56;;;;;;;14.35;7.30;;;17.80;99.90;;;;;;5067312;28;20255;-72
2021/05/13 07:57:22;;;;;;;12.27;7.85;;;18.20;99.90;;;;;;5046823;28;20168;-72
2021/05/13 07:59:48;;;;;;;14.98;8.00;;;18.30;99.90;;;;;;5067520;28;20160;-72
2021/05/13 08:02:13;;;;;;;8.85;6.85;;;18.40;99.90;;;;;;5067135;28;20214;-73
2021/05/13 08:04:39;;;;;;;14.82;7.63;;;18.40;99.90;;;;;;5066711;28;20168;-72
2021/05/13 08:07:04;;;;;;;12.32;6.70;;;18.50;99.90;;;;;;5063577;28;20185;-72
2021/05/13 08:09:30;;;;;;;13.63;7.15;;;18.70;99.90;;;;;;5067214;28;20643;-72
2021/05/13 08:11:56;;;;;;;9.90;6.18;;;18.90;99.90;;;;;;5067467;28;20168;-72
2021/05/13 08:14:21;;;;;;;9.98;6.18;;;19.10;99.90;;;;;;5048408;28;20169;-72
2021/05/13 08:16:47;;;;;;;8.00;6.65;;;19.10;99.90;;;;;;5063981;28;20853;-72
2021/05/13 08:19:13;;;;;;;15.18;6.50;;;19.20;99.90;;;;;;5048640;28;20179;-72
2021/05/13 08:21:38;;;;;;;10.68;5.63;;;19.40;99.90;;;;;;5066364;28;20175;-72
2021/05/13 08:24:04;;;;;;;9.10;4.95;;;19.40;99.90;;;;;;5048658;28;20199;-72
2021/05/13 08:26:30;;;;;;;8.07;3.92;;;19.50;99.90;;;;;;5064377;28;20249;-72
2021/05/13 08:28:56;;;;;;;10.73;3.47;;;19.70;99.90;;;;;;5066595;28;20161;-72
2021/05/13 08:31:21;;;;;;;11.93;3.70;;;19.60;99.90;;;;;;5065716;28;20180;-72
2021/05/13 08:33:47;;;;;;;6.43;2.40;;;19.60;99.90;;;;;;5065396;28;20762;-72
2021/05/13 08:36:13;;;;;;;15.75;3.20;;;19.70;99.90;;;;;;5063307;28;20157;-73
2021/05/13 08:38:39;;;;;;;7.25;3.17;;;19.80;99.90;;;;;;5065799;28;20188;-72
2021/05/13 08:41:05;;;;;;;9.00;2.80;;;20.00;99.90;;;;;;5066313;28;20202;-72
2021/05/13 08:43:31;;;;;;;11.13;2.92;;;19.90;99.90;;;;;;5048063;28;20172;-72
2021/05/13 08:45:58;;;;;;;11.73;2.63;;;20.00;99.90;;;;;;5045586;28;20204;-71
2021/05/13 08:48:26;;;;;;;6.15;3.10;;;20.30;99.90;;;;;;5064697;28;20215;-71
2021/05/13 08:50:56;;;;;;;5.65;3.13;;;20.60;99.90;;;;;;5066080;28;20199;-72
2021/05/13 08:53:22;;;;;;;12.07;3.47;;;20.50;99.90;;;;;;5047139;28;20465;-72
2021/05/13 08:55:48;;;;;;;8.23;3.05;;;20.30;99.90;;;;;;5063791;28;20152;-72
2021/05/13 08:58:14;;;;;;;6.25;1.50;;;20.00;99.90;;;;;;5066027;28;20551;-72
2021/05/13 09:00:53;;;;;;;5.70;1.65;;;20.00;99.90;;;;;;5066297;28;20160;-72
2021/05/13 09:03:37;;;;;;;3.60;1.30;;;19.70;99.90;;;;;;5047208;28;20179;-73
2021/05/13 09:06:05;;;;;;;5.40;1.63;;;19.60;99.90;;;;;;5062881;28;20225;-72
2021/05/13 09:08:31;;;;;;;9.20;1.80;;;19.70;99.90;;;;;;5047998;28;20175;-72
2021/05/13 09:11:18;;;;;;;4.97;1.60;;;19.70;99.90;;;;;;5047394;28;20157;-72
2021/05/13 09:13:57;;;;;;;5.53;1.70;;;19.50;99.90;;;;;;5065804;28;20164;-72
2021/05/13 09:16:35;;;;;;;7.35;1.88;;;19.70;99.90;;;;;;5044699;28;20516;-72
2021/05/13 09:19:28;;;;;;;9.20;1.55;;;19.60;99.90;;;;;;5064564;28;20172;-72
2021/05/13 09:22:07;;;;;;;7.72;2.00;;;19.40;99.90;;;;;;5065077;28;20168;-73
2021/05/13 09:24:45;;;;;;;7.32;2.13;;;19.30;99.90;;;;;;5065196;28;20168;-71
2021/05/13 09:27:14;;;;;;;7.00;1.95;;;19.50;99.90;;;;;;5062281;28;20544;-72
2021/05/13 09:29:40;;;;;;;6.10;1.83;;;19.60;99.90;;;;;;5065494;28;20192;-72
2021/05/13 09:32:20;;;;;;;7.57;1.88;;;19.50;99.90;;;;;;5064633;28;20157;-72
2021/05/13 09:34:46;;;;;;;8.18;2.05;;;19.60;99.90;;;;;;5046537;28;20180;-72
2021/05/13 09:37:12;;;;;;;6.00;2.00;;;19.60;99.90;;;;;;5062076;28;20168;-72
2021/05/13 09:39:48;;;;;;;8.10;2.03;;;19.70;99.90;;;;;;5064873;28;20207;-72
2021/05/13 09:42:18;;;;;;;6.40;2.00;;;19.70;99.90;;;;;;5065104;28;20228;-71
2021/05/13 09:44:46;;;;;;;7.22;1.92;;;19.60;99.90;;;;;;5065421;28;20549;-71
2021/05/13 09:47:27;;;;;;;10.65;2.20;;;19.50;99.90;;;;;;5062085;28;20196;-72
2021/05/13 09:50:04;;;;;;;5.10;2.08;;;19.50;99.90;;;;;;5047139;28;20177;-69
2021/05/13 09:52:52;;;;;;;8.80;2.13;;;19.10;99.90;;;;;;5065164;28;20153;-72
2021/05/13 09:55:25;;;;;;;6.93;2.10;;;19.30;99.90;;;;;;5062494;28;20200;-72
2021/05/13 09:58:05;;;;;;;5.25;2.05;;;19.40;99.90;;;;;;5064730;28;20163;-71
2021/05/13 10:00:47;;;;;;;9.52;2.25;;;19.50;99.90;;;;;;5064931;28;20165;-71
2021/05/13 10:03:18;;;;;;;8.27;2.17;;;19.50;99.90;;;;;;5065019;28;20161;-72
2021/05/13 10:05:49;;;;;;;5.72;1.92;;;19.50;99.90;;;;;;5044042;28;20307;-69
2021/05/13 10:08:16;;;;;;;8.32;2.10;;;19.40;99.90;;;;;;5063888;28;20153;-70
2021/05/13 10:10:42;;;;;;;7.40;1.90;;;19.70;99.90;;;;;;5064739;28;20185;-70
2021/05/13 10:13:10;;;;;;;4.40;2.28;;;19.90;99.90;;;;;;5064965;28;20192;-72
2021/05/13 10:15:41;;;;;;;4.97;2.05;;;19.90;99.90;;;;;;5062547;28;20164;-68
2021/05/13 10:18:28;;;;;;;8.48;2.17;;;19.90;99.90;;;;;;5064770;28;20187;-69
2021/05/13 10:21:04;;;;;;;8.13;2.38;;;19.90;99.90;;;;;;5046946;28;20164;-69
2021/05/13 10:23:30;;;;;;;10.38;2.10;;;20.20;99.90;;;;;;5064667;28;20164;-71
2021/05/13 10:25:56;;;;;;;9.00;2.67;;;20.30;99.90;;;;;;5062662;28;20208;-71
2021/05/13 10:28:31;;;;;;;10.45;2.20;;;20.30;99.90;;;;;;5064272;28;20736;-71
2021/05/13 10:31:06;;;;;;;10.05;2.85;;;20.70;99.90;;;;;;5046283;28;20236;-71
2021/05/13 10:33:50;;;;;;;6.78;2.13;;;20.80;99.90;;;;;;5063843;28;20214;-71
2021/05/13 10:36:19;;;;;;;6.57;2.20;;;20.90;99.90;;;;;;5062201;28;20244;-68
2021/05/13 10:38:53;;;;;;;9.38;2.10;;;20.80;99.90;;;;;;5064978;28;20171;-68
2021/05/13 10:41:28;;;;;;;7.85;2.28;;;20.70;99.90;;;;;;5064907;28;20164;-70
2021/05/13 10:43:55;;;;;;;8.38;2.15;;;20.60;99.90;;;;;;5064750;28;20176;-70
2021/05/13 10:46:28;;;;;;;10.98;2.42;;;20.30;99.90;;;;;;5062379;28;20219;-70
2021/05/13 10:49:13;;;;;;;10.05;2.33;;;20.50;99.90;;;;;;5064552;28;20234;-70
2021/05/13 10:51:38;;;;;;;7.22;2.08;;;20.60;99.90;;;;;;5047087;28;20236;-69
2021/05/13 10:54:04;;;;;;;7.00;2.25;;;20.30;99.90;;;;;;5064431;28;20177;-69
2021/05/13 10:56:37;;;;;;;12.00;2.25;;;20.20;99.90;;;;;;5044438;28;20169;-69
2021/05/13 10:59:09;;;;;;;6.00;2.13;;;20.00;99.90;;;;;;5050171;28;20283;-69
2021/05/13 11:01:48;;;;;;;6.75;2.10;;;19.80;99.90;;;;;;5049848;28;20184;-70
2021/05/13 11:04:23;;;;;;;8.23;2.33;;;19.60;99.90;;;;;;5067972;28;20199;-69
2021/05/13 11:06:56;;;;;;;7.00;2.50;;;19.60;99.90;;;;;;5065943;28;20191;-69
2021/05/13 11:09:41;;;;;;;7.40;2.65;;;19.20;99.90;;;;;;5068336;28;20426;-69
2021/05/13 11:12:14;;;;;;;12.98;2.95;;;19.50;99.90;;;;;;5068207;28;20172;-69
2021/05/13 11:20:35;;;;;;;7.05;2.63;;;20.50;99.90;;;;;;5067712;28;20177;-69
2021/05/13 11:23:07;;;;;;;5.55;2.10;;;20.10;99.90;;;;;;5068359;28;20165;-69
2021/05/13 11:25:45;;;;;;;7.82;2.70;;;20.30;99.90;;;;;;5065610;28;20168;-69
2021/05/13 11:28:21;;;;;;;5.47;2.13;;;20.40;99.90;;;;;;5067934;28;20630;-69
2021/05/13 11:30:48;;;;;;;7.18;3.20;;;20.20;99.90;;;;;;5050634;28;20173;-69
2021/05/13 11:33:14;;;;;;;8.75;3.38;;;20.40;99.90;;;;;;5065918;28;20234;-69
2021/05/13 11:35:40;;;;;;;10.60;2.70;;;20.50;99.90;;;;;;5085516;28;20175;-69
2021/05/13 11:38:22;;;;;;;9.45;3.15;;;20.70;99.90;;;;;;5086637;28;20167;-69
2021/05/13 11:40:53;;;;;;;8.25;3.03;;;20.80;99.90;;;;;;5086542;28;20182;-69
2021/05/13 11:43:23;;;;;;;13.05;3.28;;;20.50;99.90;;;;;;5087697;28;20160;-69
2021/05/13 11:45:51;;;;;;;10.75;3.45;;;20.10;99.90;;;;;;5084874;28;20185;-69
2021/05/13 11:48:26;;;;;;;5.68;3.20;;;20.00;99.90;;;;;;5087298;28;20160;-69
2021/05/13 11:50:54;;;;;;;6.80;2.90;;;20.10;99.90;;;;;;5087303;28;20649;-69
2021/05/13 11:53:20;;;;;;;12.57;4.03;;;19.70;99.90;;;;;;5087394;28;20160;-69
2021/05/13 11:55:48;;;;;;;14.30;4.45;;;19.40;99.90;;;;;;5084896;28;20188;-70
2021/05/13 11:58:33;;;;;;;13.68;5.00;;;19.20;99.90;;;;;;5087400;28;20167;-69
2021/05/13 12:01:36;;;;;;;13.70;5.43;;;19.10;99.90;;;;;;5087688;28;20243;-69
2021/05/13 12:04:12;;;;;;;11.13;5.43;;;18.90;99.90;;;;;;5085376;28;20174;-70
2021/05/13 12:06:55;;;;;;;12.90;5.13;;;18.70;99.90;;;;;;5083425;28;20199;-70
2021/05/13 12:09:22;;;;;;;7.30;4.22;;;18.60;99.90;;;;;;5086464;28;20163;-69
2021/05/13 12:11:52;;;;;;;7.38;4.13;;;18.00;99.90;;;;;;5087164;28;20171;-69
2021/05/13 12:14:24;;;;;;;4.90;3.40;;;17.50;99.90;;;;;;5086766;28;20262;-70
2021/05/13 12:17:04;;;;;;;5.97;3.72;;;16.80;99.90;;;;;;5083270;28;20298;-70
2021/05/13 12:19:33;;;;;;;8.48;4.07;;;16.40;99.90;;;;;;5085457;28;20172;-69
2021/05/13 12:22:06;;;;;;;4.00;3.60;;;16.40;99.90;;;;;;5087178;28;20168;-68
2021/05/13 12:24:34;;;;;;;5.03;3.22;;;16.40;99.90;;;;;;5086724;28;20168;-69
2021/05/13 12:27:00;;;;;;;3.47;2.90;;;16.30;99.90;;;;;;5082927;28;20282;-69
2021/05/13 12:29:27;;;;;;;63.00;6.53;;;16.20;99.90;;;;;;5086887;28;20159;-69
2021/05/13 12:31:53;;;;;;;7.72;2.85;;;16.10;99.90;;;;;;5086710;28;20239;-69
2021/05/13 12:34:32;;;;;;;3.63;2.72;;;15.80;99.90;;;;;;5067379;28;20238;-69
2021/05/13 12:36:58;;;;;;;2.55;2.35;;;15.60;99.90;;;;;;5064248;28;20176;-69
2021/05/13 12:39:39;;;;;;;2.70;2.50;;;15.10;99.90;;;;;;5066496;28;20385;-68
2021/05/13 12:42:26;;;;;;;3.95;2.60;;;15.00;99.90;;;;;;5066456;28;20192;-68
2021/05/13 12:45:11;;;;;;;3.15;2.80;;;14.70;99.90;;;;;;5066099;28;20218;-72
2021/05/13 12:47:36;;;;;;;2.55;2.35;;;14.40;99.90;;;;;;5046257;28;20208;-71
2021/05/13 12:50:03;;;;;;;4.63;2.70;;;14.00;99.90;;;;;;5065624;28;20412;-70
2021/05/13 12:52:29;;;;;;;4.72;2.72;;;13.80;99.90;;;;;;5065997;28;20160;-71
2021/05/13 12:55:13;;;;;;;2.70;2.50;;;13.60;99.90;;;;;;5065736;28;20639;-70